This is the latest recevied weather packets stored in our database for station/object W5MAI. If no packets are shown the sender has not sent any weather packets the latest 10 day(s).
| Time | Temp. | Humidity | Pressure | Rain* | Wind** | Luminosity | Snow |
|---|---|---|---|---|---|---|---|
| 1777812825 | 9.44° C | 95% | 1024.5 hPa | 0 mm | - | 79 W/m² | - |
| 1777812215 | 8.33° C | 95% | 1024.6 hPa | 0 mm | - | 69 W/m² | - |
| 1777811622 | 7.78° C | 95% | 1024.6 hPa | 0 mm | - | 46 W/m² | - |
| 1777811006 | 7.22° C | 95% | 1024.5 hPa | 0 mm | - | 28 W/m² | - |
| 1777810414 | 6.67° C | 94% | 1024.2 hPa | 0 mm | - | 14 W/m² | - |
| 1777809822 | 6.67° C | 94% | 1024.1 hPa | 0 mm | - | 11 W/m² | - |
| 1777809214 | 6.67° C | 93% | 1024 hPa | 0 mm | - | 5 W/m² | - |
| 1777808632 | 6.67° C | 93% | 1024.1 hPa | 0 mm | - | 0 W/m² | - |
| 1777808038 | 7.22° C | 93% | 1024 hPa | 0 mm | - | 0 W/m² | - |
| 1777807442 | 7.22° C | 93% | 1023.9 hPa | 0 mm | - | 0 W/m² | - |
| 1777806807 | 7.22° C | 93% | 1023.9 hPa | 0 mm | - | 0 W/m² | - |
| 1777806250 | 7.22° C | 93% | 1023.8 hPa | 0 mm | - | 0 W/m² | - |
| 1777805609 | 7.22° C | 93% | 1023.5 hPa | 0 mm | - | 0 W/m² | - |
| 1777805039 | 7.22° C | 93% | 1023.5 hPa | 0 mm | - | 0 W/m² | - |
| 1777804459 | 7.22° C | 93% | 1023.4 hPa | 0 mm | - | 0 W/m² | - |
| 1777802626 | 7.78° C | 93% | 1023.5 hPa | 0 mm | - | 0 W/m² | - |
| 1777802042 | 7.78° C | 93% | 1023.4 hPa | 0 mm | - | 0 W/m² | - |
| 1777801415 | 7.78° C | 92% | 1023.2 hPa | 0 mm | - | 0 W/m² | - |
| 1777800853 | 7.78° C | 93% | 1023.2 hPa | 0 mm | - | 0 W/m² | - |
| 1777800213 | 7.78° C | 92% | 1023 hPa | 0 mm | - | 0 W/m² | - |
| 1777799648 | 7.78° C | 92% | 1023.1 hPa | 0 mm | - | 0 W/m² | - |
| 1777799003 | 8.33° C | 92% | 1023.1 hPa | 0 mm | - | 0 W/m² | - |
| 1777798431 | 8.33° C | 92% | 1023.2 hPa | 0 mm | - | 0 W/m² | - |
| 1777797805 | 8.33° C | 92% | 1023.1 hPa | 0 mm | - | 0 W/m² | - |
| 1777796023 | 8.89° C | 92% | 1023.4 hPa | 0 mm | - | 0 W/m² | - |
* Rain latest hour (hover to see other rain measurements)
** Current wind speed in m/s (hover to see current wind gust speed)